sensor_id;sensor_type;location;lat;lon;timestamp;temperature;humidity
32446;DHT22;18899;50.748;7.102;2023-11-19T00:00:50;11.90;99.90
32446;DHT22;18899;50.748;7.102;2023-11-19T00:03:16;11.90;99.90
32446;DHT22;18899;50.748;7.102;2023-11-19T00:05:43;11.90;99.90
32446;DHT22;18899;50.748;7.102;2023-11-19T00:08:09;11.90;99.90
32446;DHT22;18899;50.748;7.102;2023-11-19T00:10:35;11.80;99.90
32446;DHT22;18899;50.748;7.102;2023-11-19T00:13:01;11.60;99.90
32446;DHT22;18899;50.748;7.102;2023-11-19T00:15:28;11.50;99.90
32446;DHT22;18899;50.748;7.102;2023-11-19T00:17:53;11.50;99.90
32446;DHT22;18899;50.748;7.102;2023-11-19T00:20:20;11.50;99.90
32446;DHT22;18899;50.748;7.102;2023-11-19T00:22:47;11.50;99.90
32446;DHT22;18899;50.748;7.102;2023-11-19T00:25:18;11.50;99.90
32446;DHT22;18899;50.748;7.102;2023-11-19T00:27:44;11.50;99.90
32446;DHT22;18899;50.748;7.102;2023-11-19T00:30:10;11.50;99.90
32446;DHT22;18899;50.748;7.102;2023-11-19T00:32:36;11.50;99.90
32446;DHT22;18899;50.748;7.102;2023-11-19T00:35:04;11.40;99.90
32446;DHT22;18899;50.748;7.102;2023-11-19T00:37:30;11.50;99.90
32446;DHT22;18899;50.748;7.102;2023-11-19T00:39:55;11.50;99.90
32446;DHT22;18899;50.748;7.102;2023-11-19T00:42:22;11.60;99.90
32446;DHT22;18899;50.748;7.102;2023-11-19T00:44:49;11.50;99.90
32446;DHT22;18899;50.748;7.102;2023-11-19T00:47:15;11.60;99.90
32446;DHT22;18899;50.748;7.102;2023-11-19T00:49:40;11.60;99.90
32446;DHT22;18899;50.748;7.102;2023-11-19T00:52:06;11.50;99.90
32446;DHT22;18899;50.748;7.102;2023-11-19T00:54:32;11.50;99.90
32446;DHT22;18899;50.748;7.102;2023-11-19T00:56:57;11.50;99.90
32446;DHT22;18899;50.748;7.102;2023-11-19T00:59:23;11.60;99.90
32446;DHT22;18899;50.748;7.102;2023-11-19T01:01:49;11.60;99.90
32446;DHT22;18899;50.748;7.102;2023-11-19T01:04:14;11.60;99.90
32446;DHT22;18899;50.748;7.102;2023-11-19T01:06:40;11.70;99.90
32446;DHT22;18899;50.748;7.102;2023-11-19T01:09:08;11.70;99.90
32446;DHT22;18899;50.748;7.102;2023-11-19T01:11:34;11.70;99.90
32446;DHT22;18899;50.748;7.102;2023-11-19T01:14:00;11.70;99.90
32446;DHT22;18899;50.748;7.102;2023-11-19T01:16:26;11.70;99.90
32446;DHT22;18899;50.748;7.102;2023-11-19T01:18:51;11.60;99.90
32446;DHT22;18899;50.748;7.102;2023-11-19T01:21:17;11.70;99.90
32446;DHT22;18899;50.748;7.102;2023-11-19T01:23:43;11.70;99.90
32446;DHT22;18899;50.748;7.102;2023-11-19T01:26:09;11.60;99.90
32446;DHT22;18899;50.748;7.102;2023-11-19T01:28:39;11.70;99.90
32446;DHT22;18899;50.748;7.102;2023-11-19T01:31:11;11.70;99.90
32446;DHT22;18899;50.748;7.102;2023-11-19T01:33:38;11.60;99.90
32446;DHT22;18899;50.748;7.102;2023-11-19T01:36:04;11.60;99.90
32446;DHT22;18899;50.748;7.102;2023-11-19T01:38:30;11.50;99.90
32446;DHT22;18899;50.748;7.102;2023-11-19T01:40:57;11.60;99.90
32446;DHT22;18899;50.748;7.102;2023-11-19T01:43:39;11.60;99.90
32446;DHT22;18899;50.748;7.102;2023-11-19T01:46:07;11.60;99.90
32446;DHT22;18899;50.748;7.102;2023-11-19T01:48:36;11.60;99.90
32446;DHT22;18899;50.748;7.102;2023-11-19T01:51:03;11.60;99.90
32446;DHT22;18899;50.748;7.102;2023-11-19T01:53:29;11.60;99.90
32446;DHT22;18899;50.748;7.102;2023-11-19T01:55:56;11.70;99.90
32446;DHT22;18899;50.748;7.102;2023-11-19T01:58:22;11.70;99.90
32446;DHT22;18899;50.748;7.102;2023-11-19T02:00:48;11.80;99.90
32446;DHT22;18899;50.748;7.102;2023-11-19T02:03:14;11.80;99.90
32446;DHT22;18899;50.748;7.102;2023-11-19T02:05:40;11.90;99.90
32446;DHT22;18899;50.748;7.102;2023-11-19T02:08:07;11.90;99.90
32446;DHT22;18899;50.748;7.102;2023-11-19T02:10:32;11.90;99.90
32446;DHT22;18899;50.748;7.102;2023-11-19T02:12:59;12.00;99.90
32446;DHT22;18899;50.748;7.102;2023-11-19T02:15:24;12.00;99.90
32446;DHT22;18899;50.748;7.102;2023-11-19T02:17:53;12.00;99.90
32446;DHT22;18899;50.748;7.102;2023-11-19T02:20:19;12.10;99.90
32446;DHT22;18899;50.748;7.102;2023-11-19T02:22:49;12.10;99.90
32446;DHT22;18899;50.748;7.102;2023-11-19T02:25:28;12.20;99.90
32446;DHT22;18899;50.748;7.102;2023-11-19T02:27:57;12.20;99.90
32446;DHT22;18899;50.748;7.102;2023-11-19T02:30:24;12.30;99.90
32446;DHT22;18899;50.748;7.102;2023-11-19T02:32:58;12.30;99.90
32446;DHT22;18899;50.748;7.102;2023-11-19T02:35:27;12.30;99.90
32446;DHT22;18899;50.748;7.102;2023-11-19T02:37:54;12.30;99.90
32446;DHT22;18899;50.748;7.102;2023-11-19T02:40:20;12.30;99.90
32446;DHT22;18899;50.748;7.102;2023-11-19T02:42:45;12.20;99.90
32446;DHT22;18899;50.748;7.102;2023-11-19T02:45:11;12.20;99.90
32446;DHT22;18899;50.748;7.102;2023-11-19T02:47:43;12.10;99.90
32446;DHT22;18899;50.748;7.102;2023-11-19T02:50:10;12.20;99.90
32446;DHT22;18899;50.748;7.102;2023-11-19T02:52:42;12.20;99.90
32446;DHT22;18899;50.748;7.102;2023-11-19T02:55:09;12.10;99.90
32446;DHT22;18899;50.748;7.102;2023-11-19T02:57:38;12.10;99.90
32446;DHT22;18899;50.748;7.102;2023-11-19T03:00:04;12.10;99.90
32446;DHT22;18899;50.748;7.102;2023-11-19T03:02:41;12.10;99.90
32446;DHT22;18899;50.748;7.102;2023-11-19T03:05:19;12.10;99.90
32446;DHT22;18899;50.748;7.102;2023-11-19T03:07:45;12.10;99.90
32446;DHT22;18899;50.748;7.102;2023-11-19T03:10:11;12.10;99.90
32446;DHT22;18899;50.748;7.102;2023-11-19T03:12:43;12.10;99.90
32446;DHT22;18899;50.748;7.102;2023-11-19T03:15:09;12.10;99.90
32446;DHT22;18899;50.748;7.102;2023-11-19T03:17:38;12.00;99.90
32446;DHT22;18899;50.748;7.102;2023-11-19T03:20:05;12.00;99.90
32446;DHT22;18899;50.748;7.102;2023-11-19T03:22:32;11.90;99.90
32446;DHT22;18899;50.748;7.102;2023-11-19T03:24:59;11.90;99.90
32446;DHT22;18899;50.748;7.102;2023-11-19T03:27:25;12.00;99.90
32446;DHT22;18899;50.748;7.102;2023-11-19T03:29:50;12.00;99.90
32446;DHT22;18899;50.748;7.102;2023-11-19T03:32:16;11.90;99.90
32446;DHT22;18899;50.748;7.102;2023-11-19T03:34:41;12.00;99.90
32446;DHT22;18899;50.748;7.102;2023-11-19T03:37:07;11.90;99.90
32446;DHT22;18899;50.748;7.102;2023-11-19T03:39:32;11.90;99.90
32446;DHT22;18899;50.748;7.102;2023-11-19T03:41:58;11.80;99.90
32446;DHT22;18899;50.748;7.102;2023-11-19T03:44:23;11.80;99.90
32446;DHT22;18899;50.748;7.102;2023-11-19T03:46:51;11.80;99.90
32446;DHT22;18899;50.748;7.102;2023-11-19T03:49:17;11.70;99.90
32446;DHT22;18899;50.748;7.102;2023-11-19T03:51:42;11.70;99.90
32446;DHT22;18899;50.748;7.102;2023-11-19T03:54:08;11.70;99.90
32446;DHT22;18899;50.748;7.102;2023-11-19T03:56:33;11.60;99.90
32446;DHT22;18899;50.748;7.102;2023-11-19T03:58:59;11.60;99.90
32446;DHT22;18899;50.748;7.102;2023-11-19T04:01:25;11.60;99.90
32446;DHT22;18899;50.748;7.102;2023-11-19T04:03:50;11.70;99.90
32446;DHT22;18899;50.748;7.102;2023-11-19T04:06:16;11.80;99.90
32446;DHT22;18899;50.748;7.102;2023-11-19T04:08:41;11.80;99.90
32446;DHT22;18899;50.748;7.102;2023-11-19T04:11:07;11.90;99.90
32446;DHT22;18899;50.748;7.102;2023-11-19T04:13:34;12.10;99.90
32446;DHT22;18899;50.748;7.102;2023-11-19T04:16:00;12.20;99.90
32446;DHT22;18899;50.748;7.102;2023-11-19T04:18:26;12.30;99.90
32446;DHT22;18899;50.748;7.102;2023-11-19T04:20:52;12.40;99.90
32446;DHT22;18899;50.748;7.102;2023-11-19T04:23:18;12.40;99.90
32446;DHT22;18899;50.748;7.102;2023-11-19T04:25:43;12.50;99.90
32446;DHT22;18899;50.748;7.102;2023-11-19T04:28:09;12.60;99.90
32446;DHT22;18899;50.748;7.102;2023-11-19T04:30:35;12.70;99.90
32446;DHT22;18899;50.748;7.102;2023-11-19T04:33:01;12.70;99.90
32446;DHT22;18899;50.748;7.102;2023-11-19T04:35:26;12.70;99.90
32446;DHT22;18899;50.748;7.102;2023-11-19T04:37:52;12.70;99.90
32446;DHT22;18899;50.748;7.102;2023-11-19T04:40:17;12.70;99.90
32446;DHT22;18899;50.748;7.102;2023-11-19T04:42:48;12.60;99.90
32446;DHT22;18899;50.748;7.102;2023-11-19T04:45:13;12.40;99.90
32446;DHT22;18899;50.748;7.102;2023-11-19T04:47:39;12.30;99.90
32446;DHT22;18899;50.748;7.102;2023-11-19T04:50:05;12.20;99.90
32446;DHT22;18899;50.748;7.102;2023-11-19T04:52:31;12.20;99.90
32446;DHT22;18899;50.748;7.102;2023-11-19T04:54:56;12.10;99.90
32446;DHT22;18899;50.748;7.102;2023-11-19T04:57:22;12.10;99.90
32446;DHT22;18899;50.748;7.102;2023-11-19T04:59:47;12.20;99.90
32446;DHT22;18899;50.748;7.102;2023-11-19T05:02:13;12.30;99.90
32446;DHT22;18899;50.748;7.102;2023-11-19T05:04:42;12.40;99.90
32446;DHT22;18899;50.748;7.102;2023-11-19T05:07:09;12.40;99.90
32446;DHT22;18899;50.748;7.102;2023-11-19T05:09:35;12.50;99.90
32446;DHT22;18899;50.748;7.102;2023-11-19T05:12:00;12.50;99.90
32446;DHT22;18899;50.748;7.102;2023-11-19T05:14:28;12.50;99.90
32446;DHT22;18899;50.748;7.102;2023-11-19T05:16:53;12.50;99.90
32446;DHT22;18899;50.748;7.102;2023-11-19T05:19:19;12.40;99.90
32446;DHT22;18899;50.748;7.102;2023-11-19T05:21:44;12.40;99.90
32446;DHT22;18899;50.748;7.102;2023-11-19T05:24:10;12.40;99.90
32446;DHT22;18899;50.748;7.102;2023-11-19T05:26:37;12.40;99.90
32446;DHT22;18899;50.748;7.102;2023-11-19T05:29:03;12.30;99.90
32446;DHT22;18899;50.748;7.102;2023-11-19T05:31:28;12.30;99.90
32446;DHT22;18899;50.748;7.102;2023-11-19T05:33:54;12.30;99.90
32446;DHT22;18899;50.748;7.102;2023-11-19T05:36:20;12.30;99.90
32446;DHT22;18899;50.748;7.102;2023-11-19T05:38:45;12.30;99.90
32446;DHT22;18899;50.748;7.102;2023-11-19T05:41:11;12.20;99.90
32446;DHT22;18899;50.748;7.102;2023-11-19T05:43:36;12.20;99.90
32446;DHT22;18899;50.748;7.102;2023-11-19T05:46:03;12.20;99.90
32446;DHT22;18899;50.748;7.102;2023-11-19T05:48:28;12.10;99.90
32446;DHT22;18899;50.748;7.102;2023-11-19T05:50:54;12.10;99.90
32446;DHT22;18899;50.748;7.102;2023-11-19T05:53:20;12.00;99.90
32446;DHT22;18899;50.748;7.102;2023-11-19T05:55:45;12.00;99.90
32446;DHT22;18899;50.748;7.102;2023-11-19T05:58:22;12.00;99.90
32446;DHT22;18899;50.748;7.102;2023-11-19T06:00:48;12.00;99.90
32446;DHT22;18899;50.748;7.102;2023-11-19T06:03:16;12.00;99.90
32446;DHT22;18899;50.748;7.102;2023-11-19T06:05:44;12.00;99.90
32446;DHT22;18899;50.748;7.102;2023-11-19T06:08:10;12.10;99.90
32446;DHT22;18899;50.748;7.102;2023-11-19T06:10:41;12.20;99.90
32446;DHT22;18899;50.748;7.102;2023-11-19T06:13:07;12.30;99.90
32446;DHT22;18899;50.748;7.102;2023-11-19T06:15:35;12.30;99.90
32446;DHT22;18899;50.748;7.102;2023-11-19T06:18:01;12.30;99.90
32446;DHT22;18899;50.748;7.102;2023-11-19T06:20:32;12.40;99.90
32446;DHT22;18899;50.748;7.102;2023-11-19T06:22:58;12.50;99.90
32446;DHT22;18899;50.748;7.102;2023-11-19T06:25:23;12.50;99.90
32446;DHT22;18899;50.748;7.102;2023-11-19T06:27:50;12.60;99.90
32446;DHT22;18899;50.748;7.102;2023-11-19T06:30:15;12.50;99.90
32446;DHT22;18899;50.748;7.102;2023-11-19T06:32:42;12.60;99.90
32446;DHT22;18899;50.748;7.102;2023-11-19T06:35:07;12.70;99.90
32446;DHT22;18899;50.748;7.102;2023-11-19T06:37:34;12.70;99.90
32446;DHT22;18899;50.748;7.102;2023-11-19T06:40:00;12.70;99.90
32446;DHT22;18899;50.748;7.102;2023-11-19T06:42:25;12.70;99.90
32446;DHT22;18899;50.748;7.102;2023-11-19T06:44:51;12.70;99.90
32446;DHT22;18899;50.748;7.102;2023-11-19T06:47:17;12.60;99.90
32446;DHT22;18899;50.748;7.102;2023-11-19T06:49:46;12.60;99.90
32446;DHT22;18899;50.748;7.102;2023-11-19T06:52:11;12.50;99.90
32446;DHT22;18899;50.748;7.102;2023-11-19T06:54:39;12.40;99.90
32446;DHT22;18899;50.748;7.102;2023-11-19T06:57:04;12.40;99.90
32446;DHT22;18899;50.748;7.102;2023-11-19T06:59:30;12.30;99.90
32446;DHT22;18899;50.748;7.102;2023-11-19T07:01:56;12.30;99.90
32446;DHT22;18899;50.748;7.102;2023-11-19T07:04:21;12.30;99.90
32446;DHT22;18899;50.748;7.102;2023-11-19T07:06:47;12.30;99.90
32446;DHT22;18899;50.748;7.102;2023-11-19T07:09:13;12.20;99.90
32446;DHT22;18899;50.748;7.102;2023-11-19T07:11:40;12.20;99.90
32446;DHT22;18899;50.748;7.102;2023-11-19T07:14:07;12.20;99.90
32446;DHT22;18899;50.748;7.102;2023-11-19T07:16:33;12.30;99.90
32446;DHT22;18899;50.748;7.102;2023-11-19T07:19:03;12.30;99.90
32446;DHT22;18899;50.748;7.102;2023-11-19T07:21:28;12.30;99.90
32446;DHT22;18899;50.748;7.102;2023-11-19T07:23:55;12.30;99.90
32446;DHT22;18899;50.748;7.102;2023-11-19T07:26:21;12.20;99.90
32446;DHT22;18899;50.748;7.102;2023-11-19T07:28:47;12.20;99.90
32446;DHT22;18899;50.748;7.102;2023-11-19T07:31:13;12.10;99.90
32446;DHT22;18899;50.748;7.102;2023-11-19T07:33:39;12.20;99.90
32446;DHT22;18899;50.748;7.102;2023-11-19T07:36:08;12.20;99.90
32446;DHT22;18899;50.748;7.102;2023-11-19T07:38:34;12.20;99.90
32446;DHT22;18899;50.748;7.102;2023-11-19T07:40:59;12.30;99.90
32446;DHT22;18899;50.748;7.102;2023-11-19T07:43:25;12.30;99.90
32446;DHT22;18899;50.748;7.102;2023-11-19T07:45:50;12.40;99.90
32446;DHT22;18899;50.748;7.102;2023-11-19T07:48:16;12.40;99.90
32446;DHT22;18899;50.748;7.102;2023-11-19T07:50:43;12.50;99.90
32446;DHT22;18899;50.748;7.102;2023-11-19T07:53:08;12.50;99.90
32446;DHT22;18899;50.748;7.102;2023-11-19T07:55:34;12.60;99.90
32446;DHT22;18899;50.748;7.102;2023-11-19T07:58:00;12.70;99.90
32446;DHT22;18899;50.748;7.102;2023-11-19T08:00:26;12.80;99.90
32446;DHT22;18899;50.748;7.102;2023-11-19T08:02:52;12.90;99.90
32446;DHT22;18899;50.748;7.102;2023-11-19T08:05:17;13.00;99.90
32446;DHT22;18899;50.748;7.102;2023-11-19T08:07:43;13.10;99.90
32446;DHT22;18899;50.748;7.102;2023-11-19T08:10:08;13.20;99.90
32446;DHT22;18899;50.748;7.102;2023-11-19T08:12:37;13.40;99.90
32446;DHT22;18899;50.748;7.102;2023-11-19T08:15:03;13.50;99.90
32446;DHT22;18899;50.748;7.102;2023-11-19T08:17:30;13.60;99.90
32446;DHT22;18899;50.748;7.102;2023-11-19T08:19:55;13.70;99.90
32446;DHT22;18899;50.748;7.102;2023-11-19T08:22:21;13.80;99.90
32446;DHT22;18899;50.748;7.102;2023-11-19T08:24:48;13.70;99.90
32446;DHT22;18899;50.748;7.102;2023-11-19T08:27:13;13.70;99.90
32446;DHT22;18899;50.748;7.102;2023-11-19T08:29:39;13.90;99.90
32446;DHT22;18899;50.748;7.102;2023-11-19T08:32:06;14.20;99.90
32446;DHT22;18899;50.748;7.102;2023-11-19T08:34:32;14.60;99.90
32446;DHT22;18899;50.748;7.102;2023-11-19T08:36:57;15.10;99.90
32446;DHT22;18899;50.748;7.102;2023-11-19T08:39:23;15.60;99.90
32446;DHT22;18899;50.748;7.102;2023-11-19T08:41:49;16.20;99.90
32446;DHT22;18899;50.748;7.102;2023-11-19T08:44:16;16.50;99.90
32446;DHT22;18899;50.748;7.102;2023-11-19T08:46:48;16.80;99.90
32446;DHT22;18899;50.748;7.102;2023-11-19T08:49:14;17.20;99.90
32446;DHT22;18899;50.748;7.102;2023-11-19T08:51:40;17.90;99.90
32446;DHT22;18899;50.748;7.102;2023-11-19T08:54:05;18.60;99.90
32446;DHT22;18899;50.748;7.102;2023-11-19T08:56:31;19.10;99.90
32446;DHT22;18899;50.748;7.102;2023-11-19T08:58:58;19.40;97.70
32446;DHT22;18899;50.748;7.102;2023-11-19T09:01:24;19.00;97.20
32446;DHT22;18899;50.748;7.102;2023-11-19T09:03:50;18.40;97.50
32446;DHT22;18899;50.748;7.102;2023-11-19T09:06:15;17.80;98.60
32446;DHT22;18899;50.748;7.102;2023-11-19T09:08:42;17.30;99.90
32446;DHT22;18899;50.748;7.102;2023-11-19T09:11:08;17.00;99.90
32446;DHT22;18899;50.748;7.102;2023-11-19T09:13:34;17.00;99.90
32446;DHT22;18899;50.748;7.102;2023-11-19T09:16:00;17.20;99.90
32446;DHT22;18899;50.748;7.102;2023-11-19T09:18:29;17.30;99.90
32446;DHT22;18899;50.748;7.102;2023-11-19T09:20:54;17.70;99.90
32446;DHT22;18899;50.748;7.102;2023-11-19T09:23:20;17.50;99.70
32446;DHT22;18899;50.748;7.102;2023-11-19T09:25:46;17.30;99.40
32446;DHT22;18899;50.748;7.102;2023-11-19T09:28:11;17.00;99.90
32446;DHT22;18899;50.748;7.102;2023-11-19T09:30:41;16.70;99.90
32446;DHT22;18899;50.748;7.102;2023-11-19T09:33:06;16.40;99.90
32446;DHT22;18899;50.748;7.102;2023-11-19T09:35:32;16.10;99.90
32446;DHT22;18899;50.748;7.102;2023-11-19T09:37:58;15.90;99.90
32446;DHT22;18899;50.748;7.102;2023-11-19T09:40:24;16.10;99.90
32446;DHT22;18899;50.748;7.102;2023-11-19T09:42:50;17.40;99.90
32446;DHT22;18899;50.748;7.102;2023-11-19T09:45:17;19.50;97.60
32446;DHT22;18899;50.748;7.102;2023-11-19T09:47:45;21.30;92.70
32446;DHT22;18899;50.748;7.102;2023-11-19T09:50:17;22.70;86.90
32446;DHT22;18899;50.748;7.102;2023-11-19T09:52:47;23.50;79.80
32446;DHT22;18899;50.748;7.102;2023-11-19T09:55:12;24.30;73.60
32446;DHT22;18899;50.748;7.102;2023-11-19T09:57:39;25.10;71.90
32446;DHT22;18899;50.748;7.102;2023-11-19T10:00:07;25.30;68.40
32446;DHT22;18899;50.748;7.102;2023-11-19T10:02:34;24.80;67.60
32446;DHT22;18899;50.748;7.102;2023-11-19T10:05:05;23.60;70.80
32446;DHT22;18899;50.748;7.102;2023-11-19T10:07:32;22.10;74.50
32446;DHT22;18899;50.748;7.102;2023-11-19T10:10:01;20.70;79.10
32446;DHT22;18899;50.748;7.102;2023-11-19T10:12:28;19.40;84.00
32446;DHT22;18899;50.748;7.102;2023-11-19T10:14:56;18.50;86.30
32446;DHT22;18899;50.748;7.102;2023-11-19T10:17:27;17.90;90.60
32446;DHT22;18899;50.748;7.102;2023-11-19T10:19:54;17.60;91.10
32446;DHT22;18899;50.748;7.102;2023-11-19T10:22:23;17.50;91.70
32446;DHT22;18899;50.748;7.102;2023-11-19T10:24:49;17.30;92.10
32446;DHT22;18899;50.748;7.102;2023-11-19T10:27:15;17.30;92.50
32446;DHT22;18899;50.748;7.102;2023-11-19T10:29:46;17.20;92.90
32446;DHT22;18899;50.748;7.102;2023-11-19T10:32:13;17.10;93.80
32446;DHT22;18899;50.748;7.102;2023-11-19T10:34:40;17.10;94.10
32446;DHT22;18899;50.748;7.102;2023-11-19T10:37:07;17.00;94.10
32446;DHT22;18899;50.748;7.102;2023-11-19T10:39:51;17.00;94.70
32446;DHT22;18899;50.748;7.102;2023-11-19T10:42:18;16.90;94.90
32446;DHT22;18899;50.748;7.102;2023-11-19T10:44:44;17.00;95.50
32446;DHT22;18899;50.748;7.102;2023-11-19T10:47:10;17.10;95.00
32446;DHT22;18899;50.748;7.102;2023-11-19T10:49:37;17.00;94.70
32446;DHT22;18899;50.748;7.102;2023-11-19T10:52:05;16.80;95.20
32446;DHT22;18899;50.748;7.102;2023-11-19T10:54:32;16.70;95.60
32446;DHT22;18899;50.748;7.102;2023-11-19T10:57:01;16.70;95.90
32446;DHT22;18899;50.748;7.102;2023-11-19T10:59:30;16.50;96.70
32446;DHT22;18899;50.748;7.102;2023-11-19T11:01:56;16.60;97.30
32446;DHT22;18899;50.748;7.102;2023-11-19T11:04:26;16.90;96.80
32446;DHT22;18899;50.748;7.102;2023-11-19T11:06:54;17.10;95.90
32446;DHT22;18899;50.748;7.102;2023-11-19T11:09:21;17.20;95.80
32446;DHT22;18899;50.748;7.102;2023-11-19T11:11:47;17.10;94.60
32446;DHT22;18899;50.748;7.102;2023-11-19T11:14:14;17.00;94.70
32446;DHT22;18899;50.748;7.102;2023-11-19T11:16:43;16.90;95.10
32446;DHT22;18899;50.748;7.102;2023-11-19T11:19:10;16.70;95.20
32446;DHT22;18899;50.748;7.102;2023-11-19T11:21:37;16.50;95.50
32446;DHT22;18899;50.748;7.102;2023-11-19T11:24:17;16.20;96.10
32446;DHT22;18899;50.748;7.102;2023-11-19T11:29:31;15.90;97.70
32446;DHT22;18899;50.748;7.102;2023-11-19T11:32:20;15.90;97.40
32446;DHT22;18899;50.748;7.102;2023-11-19T11:37:34;15.80;97.50
32446;DHT22;18899;50.748;7.102;2023-11-19T11:40:02;15.70;97.50
32446;DHT22;18899;50.748;7.102;2023-11-19T11:42:36;15.50;97.70
32446;DHT22;18899;50.748;7.102;2023-11-19T11:45:07;15.50;99.10
32446;DHT22;18899;50.748;7.102;2023-11-19T11:50:14;15.20;99.90
32446;DHT22;18899;50.748;7.102;2023-11-19T11:55:51;15.20;99.90
32446;DHT22;18899;50.748;7.102;2023-11-19T11:58:17;15.40;99.90
32446;DHT22;18899;50.748;7.102;2023-11-19T12:00:43;15.40;99.90
32446;DHT22;18899;50.748;7.102;2023-11-19T12:03:11;15.50;99.90
32446;DHT22;18899;50.748;7.102;2023-11-19T12:05:44;15.40;99.90
32446;DHT22;18899;50.748;7.102;2023-11-19T12:08:11;15.30;99.90
32446;DHT22;18899;50.748;7.102;2023-11-19T12:13:09;15.10;99.90
32446;DHT22;18899;50.748;7.102;2023-11-19T12:18:32;15.10;99.90
32446;DHT22;18899;50.748;7.102;2023-11-19T12:20:58;15.20;99.90
32446;DHT22;18899;50.748;7.102;2023-11-19T12:23:30;15.30;99.90
32446;DHT22;18899;50.748;7.102;2023-11-19T12:25:57;15.30;99.90
32446;DHT22;18899;50.748;7.102;2023-11-19T12:28:23;15.30;99.90
32446;DHT22;18899;50.748;7.102;2023-11-19T12:30:52;15.50;99.90
32446;DHT22;18899;50.748;7.102;2023-11-19T12:33:18;15.50;99.90
32446;DHT22;18899;50.748;7.102;2023-11-19T12:35:46;15.60;99.90
32446;DHT22;18899;50.748;7.102;2023-11-19T12:38:24;15.50;99.90
32446;DHT22;18899;50.748;7.102;2023-11-19T12:41:03;15.50;99.90
32446;DHT22;18899;50.748;7.102;2023-11-19T12:43:29;15.60;99.90
32446;DHT22;18899;50.748;7.102;2023-11-19T12:45:55;15.50;99.90
32446;DHT22;18899;50.748;7.102;2023-11-19T12:48:21;15.50;99.90
32446;DHT22;18899;50.748;7.102;2023-11-19T12:50:57;15.50;99.90
32446;DHT22;18899;50.748;7.102;2023-11-19T12:53:24;15.50;99.90
32446;DHT22;18899;50.748;7.102;2023-11-19T12:55:51;15.60;99.90
32446;DHT22;18899;50.748;7.102;2023-11-19T12:58:34;15.70;99.90
32446;DHT22;18899;50.748;7.102;2023-11-19T13:01:02;15.70;99.90
32446;DHT22;18899;50.748;7.102;2023-11-19T13:03:47;15.70;99.90
32446;DHT22;18899;50.748;7.102;2023-11-19T13:06:14;15.70;99.90
32446;DHT22;18899;50.748;7.102;2023-11-19T13:08:42;15.60;99.90
32446;DHT22;18899;50.748;7.102;2023-11-19T13:11:09;15.40;99.90
32446;DHT22;18899;50.748;7.102;2023-11-19T13:14:00;15.20;99.90
32446;DHT22;18899;50.748;7.102;2023-11-19T13:16:27;15.10;99.90
32446;DHT22;18899;50.748;7.102;2023-11-19T13:18:53;15.10;99.90
32446;DHT22;18899;50.748;7.102;2023-11-19T13:21:19;15.00;99.90
32446;DHT22;18899;50.748;7.102;2023-11-19T13:23:45;15.10;99.90
32446;DHT22;18899;50.748;7.102;2023-11-19T13:26:11;15.10;99.90
32446;DHT22;18899;50.748;7.102;2023-11-19T13:28:37;15.10;99.90
32446;DHT22;18899;50.748;7.102;2023-11-19T13:31:03;15.00;99.90
32446;DHT22;18899;50.748;7.102;2023-11-19T13:33:29;14.80;99.90
32446;DHT22;18899;50.748;7.102;2023-11-19T13:35:55;14.90;99.90
32446;DHT22;18899;50.748;7.102;2023-11-19T13:38:20;14.80;99.90
32446;DHT22;18899;50.748;7.102;2023-11-19T13:40:46;14.70;99.90
32446;DHT22;18899;50.748;7.102;2023-11-19T13:43:11;14.60;99.90
32446;DHT22;18899;50.748;7.102;2023-11-19T13:45:37;14.60;99.90
32446;DHT22;18899;50.748;7.102;2023-11-19T13:48:03;14.50;99.90
32446;DHT22;18899;50.748;7.102;2023-11-19T13:50:28;14.50;99.90
32446;DHT22;18899;50.748;7.102;2023-11-19T13:52:54;14.60;99.90
32446;DHT22;18899;50.748;7.102;2023-11-19T13:55:20;14.70;99.90
32446;DHT22;18899;50.748;7.102;2023-11-19T13:57:46;14.90;99.90
32446;DHT22;18899;50.748;7.102;2023-11-19T14:00:12;15.00;99.90
32446;DHT22;18899;50.748;7.102;2023-11-19T14:02:42;15.00;99.90
32446;DHT22;18899;50.748;7.102;2023-11-19T14:05:10;14.90;99.90
32446;DHT22;18899;50.748;7.102;2023-11-19T14:07:37;14.90;99.90
32446;DHT22;18899;50.748;7.102;2023-11-19T14:10:03;14.80;99.90
32446;DHT22;18899;50.748;7.102;2023-11-19T14:12:30;14.70;99.90
32446;DHT22;18899;50.748;7.102;2023-11-19T14:14:56;14.60;99.90
32446;DHT22;18899;50.748;7.102;2023-11-19T14:17:21;14.60;99.90
32446;DHT22;18899;50.748;7.102;2023-11-19T14:19:47;14.60;99.90
32446;DHT22;18899;50.748;7.102;2023-11-19T14:22:13;14.70;99.90
32446;DHT22;18899;50.748;7.102;2023-11-19T14:24:38;14.70;99.90
32446;DHT22;18899;50.748;7.102;2023-11-19T14:27:07;14.70;99.90
32446;DHT22;18899;50.748;7.102;2023-11-19T14:29:32;14.70;99.90
32446;DHT22;18899;50.748;7.102;2023-11-19T14:32:00;14.70;99.90
32446;DHT22;18899;50.748;7.102;2023-11-19T14:34:26;14.70;99.90
32446;DHT22;18899;50.748;7.102;2023-11-19T14:36:52;14.80;99.90
32446;DHT22;18899;50.748;7.102;2023-11-19T14:39:19;14.80;99.90
32446;DHT22;18899;50.748;7.102;2023-11-19T14:41:44;14.90;99.90
32446;DHT22;18899;50.748;7.102;2023-11-19T14:44:10;14.90;99.90
32446;DHT22;18899;50.748;7.102;2023-11-19T14:46:36;15.00;99.90
32446;DHT22;18899;50.748;7.102;2023-11-19T14:49:02;14.90;99.90
32446;DHT22;18899;50.748;7.102;2023-11-19T14:51:29;14.90;99.90
32446;DHT22;18899;50.748;7.102;2023-11-19T14:53:55;14.90;99.90
32446;DHT22;18899;50.748;7.102;2023-11-19T14:56:20;14.80;99.90
32446;DHT22;18899;50.748;7.102;2023-11-19T14:58:46;14.70;99.90
32446;DHT22;18899;50.748;7.102;2023-11-19T15:01:12;14.70;99.90
32446;DHT22;18899;50.748;7.102;2023-11-19T15:03:37;14.60;99.90
32446;DHT22;18899;50.748;7.102;2023-11-19T15:06:03;14.50;99.90
32446;DHT22;18899;50.748;7.102;2023-11-19T15:08:29;14.40;99.90
32446;DHT22;18899;50.748;7.102;2023-11-19T15:10:55;14.30;99.90
32446;DHT22;18899;50.748;7.102;2023-11-19T15:13:23;14.30;99.90
32446;DHT22;18899;50.748;7.102;2023-11-19T15:15:49;14.30;99.90
32446;DHT22;18899;50.748;7.102;2023-11-19T15:18:15;14.20;99.90
32446;DHT22;18899;50.748;7.102;2023-11-19T15:20:42;14.10;99.90
32446;DHT22;18899;50.748;7.102;2023-11-19T15:23:15;14.10;99.90
32446;DHT22;18899;50.748;7.102;2023-11-19T15:25:42;14.10;99.90
32446;DHT22;18899;50.748;7.102;2023-11-19T15:28:07;14.10;99.90
32446;DHT22;18899;50.748;7.102;2023-11-19T15:30:33;14.00;99.90
32446;DHT22;18899;50.748;7.102;2023-11-19T15:32:58;13.90;99.90
32446;DHT22;18899;50.748;7.102;2023-11-19T15:35:24;13.80;99.90
32446;DHT22;18899;50.748;7.102;2023-11-19T15:37:50;13.80;99.90
32446;DHT22;18899;50.748;7.102;2023-11-19T15:40:15;13.80;99.90
32446;DHT22;18899;50.748;7.102;2023-11-19T15:42:41;13.80;99.90
32446;DHT22;18899;50.748;7.102;2023-11-19T15:45:09;13.70;99.90